createdAt,value
2019-05-26T00:01:12.307Z,10.60
2019-05-26T00:03:41.355Z,10.30
2019-05-26T00:06:10.534Z,10.17
2019-05-26T00:08:39.576Z,10.73
2019-05-26T00:11:08.760Z,11.00
2019-05-26T00:13:37.783Z,11.10
2019-05-26T00:16:06.904Z,10.43
2019-05-26T00:18:35.952Z,9.37
2019-05-26T00:21:05.051Z,10.77
2019-05-26T00:23:34.111Z,10.57
2019-05-26T00:26:03.162Z,10.33
2019-05-26T00:28:32.203Z,9.80
2019-05-26T00:31:01.269Z,9.43
2019-05-26T00:33:30.347Z,9.60
2019-05-26T00:35:59.383Z,10.10
2019-05-26T00:38:28.491Z,10.57
2019-05-26T00:40:57.596Z,11.37
2019-05-26T00:43:26.663Z,10.23
2019-05-26T00:45:55.720Z,10.43
2019-05-26T00:48:24.851Z,10.23
2019-05-26T00:50:53.961Z,11.07
2019-05-26T00:53:22.961Z,11.00
2019-05-26T00:55:52.027Z,10.20
2019-05-26T00:58:21.008Z,10.13
2019-05-26T01:00:50.062Z,9.93
2019-05-26T01:03:19.133Z,9.80
2019-05-26T01:05:48.157Z,9.77
2019-05-26T01:08:17.244Z,10.17
2019-05-26T01:10:46.290Z,10.10
2019-05-26T01:13:15.375Z,10.97
2019-05-26T01:15:44.401Z,10.80
2019-05-26T01:18:13.442Z,10.37
2019-05-26T01:20:42.465Z,10.13
2019-05-26T01:23:11.534Z,10.77
2019-05-26T01:25:40.576Z,9.90
2019-05-26T01:28:09.657Z,11.67
2019-05-26T01:30:39.035Z,10.90
2019-05-26T01:33:08.171Z,11.43
2019-05-26T01:35:39.514Z,11.13
2019-05-26T01:38:22.442Z,11.20
2019-05-26T01:40:43.802Z,10.37
2019-05-26T01:43:12.865Z,11.33
2019-05-26T01:45:41.900Z,10.77
2019-05-26T01:48:11.177Z,10.80
2019-05-26T01:50:40.275Z,10.03
2019-05-26T01:53:09.316Z,10.50
2019-05-26T01:55:38.385Z,11.70
2019-05-26T01:58:07.427Z,11.40
2019-05-26T02:00:36.426Z,12.90
2019-05-26T02:03:05.548Z,11.23
2019-05-26T02:05:34.592Z,10.80
2019-05-26T02:08:03.615Z,10.27
2019-05-26T02:10:32.677Z,11.07
2019-05-26T02:13:01.712Z,10.37
2019-05-26T02:15:30.845Z,11.50
2019-05-26T02:17:59.926Z,10.90
2019-05-26T02:20:28.998Z,10.83
2019-05-26T02:22:58.078Z,10.20
2019-05-26T02:25:27.092Z,10.57
2019-05-26T02:27:56.148Z,10.53
2019-05-26T02:30:25.244Z,10.90
2019-05-26T02:32:54.377Z,11.60
2019-05-26T02:35:23.479Z,11.00
2019-05-26T02:37:52.508Z,10.03
2019-05-26T02:40:21.672Z,10.47
2019-05-26T02:42:53.269Z,10.57
2019-05-26T02:45:22.264Z,10.17
2019-05-26T02:47:51.322Z,10.63
2019-05-26T02:50:20.391Z,10.40
2019-05-26T02:52:49.435Z,10.90
2019-05-26T02:55:18.503Z,9.87
2019-05-26T02:57:47.558Z,11.73
2019-05-26T03:00:19.775Z,10.93
2019-05-26T03:02:48.850Z,10.93
2019-05-26T03:05:17.919Z,10.17
2019-05-26T03:07:46.964Z,10.87
2019-05-26T03:10:16.042Z,10.13
2019-05-26T03:12:45.075Z,9.87
2019-05-26T03:15:14.220Z,9.63
2019-05-26T03:17:43.474Z,10.33
2019-05-26T03:20:14.428Z,10.40
2019-05-26T03:22:43.526Z,10.13
2019-05-26T03:25:12.624Z,10.10
2019-05-26T03:27:41.666Z,10.57
2019-05-26T03:30:10.890Z,9.77
2019-05-26T03:32:39.962Z,10.50
2019-05-26T03:35:09.654Z,9.87
2019-05-26T03:37:38.797Z,11.00
2019-05-26T03:40:08.439Z,9.67
2019-05-26T03:42:37.464Z,10.00
2019-05-26T03:45:07.138Z,10.63
2019-05-26T03:47:36.147Z,10.37
2019-05-26T03:50:06.114Z,9.77
2019-05-26T03:52:35.246Z,9.57
2019-05-26T03:55:04.503Z,9.93
2019-05-26T03:57:33.503Z,9.73
2019-05-26T04:00:02.608Z,10.03
2019-05-26T04:02:31.738Z,10.47
2019-05-26T04:05:00.763Z,10.90
2019-05-26T04:07:29.802Z,11.03
2019-05-26T04:10:05.434Z,10.37
2019-05-26T04:12:29.606Z,10.90
2019-05-26T04:14:58.688Z,10.13
2019-05-26T04:17:27.901Z,10.63
2019-05-26T04:19:56.932Z,10.40
2019-05-26T04:22:26.039Z,10.13
2019-05-26T04:24:55.051Z,10.60
2019-05-26T04:27:24.089Z,10.53
2019-05-26T04:29:53.114Z,10.83
2019-05-26T04:32:22.222Z,10.27
2019-05-26T04:34:51.299Z,10.73
2019-05-26T04:37:20.411Z,10.90
2019-05-26T04:39:49.494Z,11.20
2019-05-26T04:42:18.547Z,11.23
2019-05-26T04:44:47.616Z,9.93
2019-05-26T04:47:16.727Z,9.33
2019-05-26T04:49:45.775Z,10.73
2019-05-26T04:52:14.866Z,10.33
2019-05-26T04:54:43.904Z,9.83
2019-05-26T04:57:12.934Z,9.63
2019-05-26T04:59:41.993Z,9.60
2019-05-26T05:02:11.057Z,10.00
2019-05-26T05:04:40.141Z,9.30
2019-05-26T05:07:09.210Z,8.93
2019-05-26T05:09:38.213Z,8.10
2019-05-26T05:12:07.255Z,8.43
2019-05-26T05:14:36.291Z,8.20
2019-05-26T05:17:05.343Z,8.37
2019-05-26T05:19:34.482Z,8.70
2019-05-26T05:22:05.401Z,9.03
2019-05-26T05:24:34.458Z,8.20
2019-05-26T05:27:03.510Z,8.80
2019-05-26T05:29:32.554Z,8.60
2019-05-26T05:32:01.648Z,9.07
2019-05-26T05:34:30.715Z,9.00
2019-05-26T05:36:59.732Z,9.37
2019-05-26T05:39:28.831Z,8.70
2019-05-26T05:41:57.834Z,9.10
2019-05-26T05:44:26.926Z,9.30
2019-05-26T05:46:56.028Z,9.77
2019-05-26T05:49:25.009Z,9.27
2019-05-26T05:51:54.026Z,8.70
2019-05-26T05:54:23.233Z,9.03
2019-05-26T05:56:55.482Z,9.23
2019-05-26T05:59:23.050Z,8.57
2019-05-26T06:01:52.072Z,8.67
2019-05-26T06:04:21.181Z,9.10
2019-05-26T06:06:50.238Z,8.23
2019-05-26T06:09:19.356Z,8.37
2019-05-26T06:11:52.291Z,8.73
2019-05-26T06:14:19.138Z,8.03
2019-05-26T06:16:48.294Z,8.17
2019-05-26T06:19:17.504Z,7.77
2019-05-26T06:21:46.531Z,8.07
2019-05-26T06:24:15.579Z,8.10
2019-05-26T06:26:44.636Z,7.70
2019-05-26T06:29:13.717Z,7.37
2019-05-26T06:31:42.812Z,7.13
2019-05-26T06:34:11.966Z,7.53
2019-05-26T06:36:40.966Z,8.10
2019-05-26T06:39:10.070Z,7.20
2019-05-26T06:41:39.078Z,7.60
2019-05-26T06:44:08.161Z,7.90
2019-05-26T06:46:37.185Z,7.30
2019-05-26T06:49:06.286Z,7.33
2019-05-26T06:51:35.302Z,7.20
2019-05-26T06:54:04.477Z,7.23
2019-05-26T06:56:33.566Z,7.10
2019-05-26T06:59:03.120Z,7.07
2019-05-26T07:01:32.203Z,6.80
2019-05-26T07:04:01.246Z,6.67
2019-05-26T07:06:30.348Z,6.63
2019-05-26T07:08:59.486Z,6.43
2019-05-26T07:11:28.551Z,6.63
2019-05-26T07:13:57.694Z,7.03
2019-05-26T07:16:37.699Z,6.80
2019-05-26T07:18:57.650Z,6.90
2019-05-26T07:21:26.676Z,6.93
2019-05-26T07:23:55.839Z,6.80
2019-05-26T07:26:24.932Z,6.80
2019-05-26T07:28:53.947Z,6.50
2019-05-26T07:31:22.949Z,6.50
2019-05-26T07:33:52.066Z,7.37
2019-05-26T07:36:21.133Z,6.87
2019-05-26T07:38:50.158Z,6.70
2019-05-26T07:41:19.373Z,6.93
2019-05-26T07:43:48.412Z,13.03
2019-05-26T07:46:17.555Z,6.83
2019-05-26T07:48:46.653Z,6.73
2019-05-26T07:51:15.831Z,7.63
2019-05-26T07:53:44.936Z,7.73
2019-05-26T07:56:14.056Z,7.90
2019-05-26T07:58:43.124Z,8.23
2019-05-26T08:01:12.228Z,9.00
2019-05-26T08:03:41.369Z,9.53
2019-05-26T08:06:10.505Z,8.37
2019-05-26T08:08:39.595Z,9.57
2019-05-26T08:11:08.714Z,9.13
2019-05-26T08:13:37.902Z,9.07
2019-05-26T08:16:06.982Z,10.03
2019-05-26T08:18:36.024Z,9.73
2019-05-26T08:21:05.109Z,9.40
2019-05-26T08:23:34.208Z,9.67
2019-05-26T08:26:03.290Z,9.67
2019-05-26T08:28:32.379Z,9.63
2019-05-26T08:31:01.578Z,9.70
2019-05-26T08:33:30.601Z,9.57
2019-05-26T08:35:59.654Z,7.80
2019-05-26T08:38:28.813Z,6.93
2019-05-26T08:40:57.935Z,5.10
2019-05-26T08:43:27.271Z,4.30
2019-05-26T08:45:56.373Z,3.87
2019-05-26T08:48:25.469Z,3.97
2019-05-26T08:50:54.581Z,4.43
2019-05-26T08:53:23.649Z,4.20
2019-05-26T08:55:52.866Z,3.30
2019-05-26T08:58:21.945Z,3.73
2019-05-26T09:00:51.181Z,3.53
2019-05-26T09:03:20.353Z,3.53
2019-05-26T09:05:49.592Z,3.43
2019-05-26T09:08:18.772Z,3.20
2019-05-26T09:10:47.976Z,3.83
2019-05-26T09:13:17.084Z,3.80
2019-05-26T09:15:46.296Z,3.60
2019-05-26T09:18:15.388Z,3.50
2019-05-26T09:20:44.564Z,3.87
2019-05-26T09:23:13.630Z,4.10
2019-05-26T09:25:46.254Z,4.17
2019-05-26T09:28:13.546Z,3.60
2019-05-26T09:30:42.653Z,3.77
2019-05-26T09:33:11.707Z,3.60
2019-05-26T09:35:40.843Z,3.57
2019-05-26T09:38:09.992Z,2.97
2019-05-26T09:40:39.034Z,3.03
2019-05-26T09:43:16.033Z,3.20
2019-05-26T09:45:38.855Z,3.10
2019-05-26T09:48:07.966Z,3.17
2019-05-26T09:50:37.010Z,2.77
2019-05-26T09:53:06.259Z,2.60
2019-05-26T09:55:35.360Z,3.20
2019-05-26T09:58:04.505Z,2.60
2019-05-26T10:00:33.542Z,2.73
2019-05-26T10:03:02.693Z,2.70
2019-05-26T10:05:31.774Z,2.63
2019-05-26T10:08:00.888Z,2.70
2019-05-26T10:10:30.016Z,2.87
2019-05-26T10:12:59.068Z,3.30
2019-05-26T10:15:28.142Z,3.30
2019-05-26T10:17:57.352Z,3.00
2019-05-26T10:20:26.459Z,2.80
2019-05-26T10:22:55.663Z,3.20
2019-05-26T10:25:24.729Z,3.67
2019-05-26T10:27:53.863Z,4.00
2019-05-26T10:30:22.979Z,3.53
2019-05-26T10:32:52.101Z,3.30
2019-05-26T10:35:21.146Z,3.03
2019-05-26T10:37:50.332Z,3.50
2019-05-26T10:40:19.448Z,3.27
2019-05-26T10:42:48.584Z,2.90
2019-05-26T10:45:17.676Z,3.33
2019-05-26T10:47:46.841Z,3.80
2019-05-26T10:50:16.983Z,3.23
2019-05-26T10:52:46.140Z,2.93
2019-05-26T10:55:15.228Z,4.03
2019-05-26T10:57:44.440Z,3.00
2019-05-26T11:00:22.552Z,2.73
2019-05-26T11:02:53.210Z,3.17
2019-05-26T11:05:22.273Z,3.20
2019-05-26T11:07:51.415Z,4.20
2019-05-26T11:10:20.494Z,3.27
2019-05-26T11:12:49.820Z,3.40
2019-05-26T11:15:18.996Z,2.67
2019-05-26T11:17:48.160Z,3.37
2019-05-26T11:20:19.027Z,3.20
2019-05-26T11:22:48.152Z,3.13
2019-05-26T11:25:17.397Z,3.00
2019-05-26T11:27:46.538Z,3.60
2019-05-26T11:30:15.730Z,2.80
2019-05-26T11:32:44.755Z,3.40
2019-05-26T11:35:13.835Z,2.90
2019-05-26T11:37:42.853Z,2.50
2019-05-26T11:40:11.906Z,2.80
2019-05-26T11:42:44.430Z,2.97
2019-05-26T11:45:11.686Z,2.50
2019-05-26T11:47:40.679Z,2.63
2019-05-26T11:50:10.415Z,2.87
2019-05-26T11:52:39.397Z,2.43
2019-05-26T11:55:08.480Z,2.83
2019-05-26T11:57:37.839Z,2.37
2019-05-26T12:00:07.011Z,2.37
2019-05-26T12:02:36.092Z,2.27
2019-05-26T12:05:05.452Z,2.40
2019-05-26T12:07:34.506Z,2.23
2019-05-26T12:10:03.627Z,2.57
2019-05-26T12:12:32.692Z,2.80
2019-05-26T12:15:02.119Z,2.30
2019-05-26T12:17:32.008Z,2.17
2019-05-26T12:20:04.872Z,2.50
2019-05-26T12:22:31.831Z,2.43
2019-05-26T12:25:00.874Z,2.17
2019-05-26T12:27:30.050Z,2.17
2019-05-26T12:29:59.081Z,1.90
2019-05-26T12:32:28.145Z,2.43
2019-05-26T12:34:57.182Z,2.10
2019-05-26T12:37:26.195Z,2.20
2019-05-26T12:39:55.254Z,2.13
2019-05-26T12:42:24.273Z,1.90
2019-05-26T12:44:53.324Z,1.70
2019-05-26T12:47:22.338Z,2.00
2019-05-26T12:49:54.530Z,1.90
2019-05-26T12:52:23.545Z,1.60
2019-05-26T12:54:52.631Z,1.80
2019-05-26T12:57:21.675Z,1.70
2019-05-26T12:59:50.730Z,1.60
2019-05-26T13:02:19.794Z,1.30
2019-05-26T13:04:48.829Z,1.60
2019-05-26T13:07:17.905Z,1.47
2019-05-26T13:09:46.939Z,1.30
2019-05-26T13:12:15.986Z,1.60
2019-05-26T13:14:45.075Z,1.40
2019-05-26T13:17:14.130Z,1.30
2019-05-26T13:19:43.182Z,1.30
2019-05-26T13:22:12.315Z,1.30
2019-05-26T13:24:41.513Z,1.33
2019-05-26T13:27:10.668Z,1.40
2019-05-26T13:29:39.794Z,1.40
2019-05-26T13:32:08.984Z,1.40
2019-05-26T13:34:38.074Z,1.20
2019-05-26T13:37:07.224Z,1.30
2019-05-26T13:39:36.247Z,1.10
2019-05-26T13:42:05.314Z,1.40
2019-05-26T13:44:34.346Z,1.23
2019-05-26T13:47:03.381Z,1.60
2019-05-26T13:49:32.462Z,1.60
2019-05-26T13:52:01.547Z,1.63
2019-05-26T13:54:30.620Z,1.20
2019-05-26T13:56:59.750Z,1.60
2019-05-26T13:59:28.776Z,1.50
2019-05-26T14:01:57.848Z,1.50
2019-05-26T14:04:27.100Z,4.77
2019-05-26T14:06:56.340Z,1.50
2019-05-26T14:09:25.424Z,1.30
2019-05-26T14:11:54.580Z,1.63
2019-05-26T14:14:23.596Z,1.60
2019-05-26T14:16:52.849Z,1.20
2019-05-26T14:19:22.563Z,1.80
2019-05-26T14:21:51.793Z,1.80
2019-05-26T14:24:20.904Z,1.53
2019-05-26T14:26:50.117Z,1.37
2019-05-26T14:29:19.214Z,1.40
2019-05-26T14:31:48.258Z,1.40
2019-05-26T14:34:17.329Z,1.30
2019-05-26T14:36:46.394Z,1.27
2019-05-26T14:39:15.468Z,1.07
2019-05-26T14:41:44.606Z,1.30
2019-05-26T14:44:13.792Z,1.13
2019-05-26T14:46:42.973Z,1.53
2019-05-26T14:49:12.085Z,1.30
2019-05-26T14:51:41.248Z,1.60
2019-05-26T14:54:10.445Z,1.20
2019-05-26T14:56:39.625Z,1.57
2019-05-26T14:59:08.711Z,1.03
2019-05-26T15:01:37.836Z,1.23
2019-05-26T15:04:06.916Z,1.20
2019-05-26T15:06:35.994Z,1.20
2019-05-26T15:09:06.937Z,1.30
2019-05-26T15:11:36.105Z,1.10
2019-05-26T15:14:05.174Z,1.10
2019-05-26T15:16:34.302Z,1.30
2019-05-26T15:19:03.381Z,1.60
2019-05-26T15:21:32.415Z,1.90
2019-05-26T15:24:01.565Z,1.53
2019-05-26T15:26:30.683Z,1.10
2019-05-26T15:28:59.789Z,1.33
2019-05-26T15:31:28.896Z,1.23
2019-05-26T15:33:57.992Z,1.10
2019-05-26T15:36:27.085Z,1.20
2019-05-26T15:38:56.171Z,1.30
2019-05-26T15:41:25.206Z,6.23
2019-05-26T15:43:54.452Z,5.20
2019-05-26T15:46:25.510Z,1.30
2019-05-26T15:48:54.347Z,1.17
2019-05-26T15:51:23.425Z,1.13
2019-05-26T15:53:52.591Z,1.00
2019-05-26T15:56:21.706Z,1.43
2019-05-26T15:58:50.847Z,1.30
2019-05-26T16:01:20.039Z,2.60
2019-05-26T16:03:49.121Z,1.40
2019-05-26T16:06:18.172Z,1.20
2019-05-26T16:08:48.174Z,1.50
2019-05-26T16:11:17.253Z,1.60
2019-05-26T16:13:46.370Z,1.60
2019-05-26T16:16:15.497Z,1.30
2019-05-26T16:18:44.620Z,2.43
2019-05-26T16:21:26.981Z,2.50
2019-05-26T16:23:44.367Z,6.80
2019-05-26T16:26:13.488Z,1.60
2019-05-26T16:28:42.665Z,1.53
2019-05-26T16:31:12.383Z,2.30
2019-05-26T16:33:41.545Z,1.90
2019-05-26T16:36:10.674Z,2.50
2019-05-26T16:38:39.735Z,2.07
2019-05-26T16:41:08.837Z,1.90
2019-05-26T16:43:37.902Z,1.40
2019-05-26T16:46:07.035Z,1.53
2019-05-26T16:48:36.093Z,1.60
2019-05-26T16:51:05.264Z,1.60
2019-05-26T16:53:34.296Z,3.40
2019-05-26T16:56:03.357Z,14.10
2019-05-26T16:58:32.592Z,22.47
2019-05-26T17:01:01.672Z,5.40
2019-05-26T17:03:30.759Z,9.97
2019-05-26T17:06:07.785Z,145.43
2019-05-26T17:08:30.712Z,70.60
2019-05-26T17:10:59.786Z,51.17
2019-05-26T17:13:28.865Z,5.13
2019-05-26T17:15:57.990Z,99.03
2019-05-26T17:18:27.177Z,139.63
2019-05-26T17:20:56.274Z,80.33
2019-05-26T17:23:25.312Z,8.13
2019-05-26T17:25:54.410Z,31.00
2019-05-26T17:28:23.467Z,26.87
2019-05-26T17:30:52.602Z,4.23
2019-05-26T17:33:22.012Z,71.50
2019-05-26T17:35:51.080Z,309.73
2019-05-26T17:38:20.150Z,633.97
2019-05-26T17:40:49.211Z,627.93
2019-05-26T17:43:18.335Z,999.90
2019-05-26T17:45:47.493Z,920.03
2019-05-26T17:48:16.581Z,999.90
2019-05-26T17:50:45.654Z,867.10
2019-05-26T17:53:14.825Z,976.30
2019-05-26T17:55:44.003Z,534.57
2019-05-26T17:58:13.142Z,161.03
2019-05-26T18:00:42.294Z,44.37
2019-05-26T18:03:11.381Z,97.57
2019-05-26T18:05:40.525Z,6.13
2019-05-26T18:08:09.556Z,41.07
2019-05-26T18:10:38.685Z,104.93
2019-05-26T18:13:07.732Z,223.90
2019-05-26T18:15:36.838Z,44.23
2019-05-26T18:18:05.954Z,34.87
2019-05-26T18:20:35.088Z,185.33
2019-05-26T18:23:04.165Z,81.73
2019-05-26T18:25:33.259Z,2.00
2019-05-26T18:28:02.283Z,6.33
2019-05-26T18:30:31.350Z,2.80
2019-05-26T18:33:00.506Z,16.07
2019-05-26T18:35:29.577Z,2.60
2019-05-26T18:37:58.657Z,1.57
2019-05-26T18:40:27.724Z,1.90
2019-05-26T18:42:56.901Z,4.10
2019-05-26T18:45:25.947Z,1.70
2019-05-26T18:48:03.111Z,34.80
2019-05-26T18:50:26.231Z,116.50
2019-05-26T18:52:55.441Z,70.17
2019-05-26T18:55:24.821Z,5.77
2019-05-26T18:57:54.011Z,1.47
2019-05-26T19:00:23.059Z,1.53
2019-05-26T19:02:52.156Z,3.60
2019-05-26T19:05:32.827Z,2.70
2019-05-26T19:07:51.972Z,1.57
2019-05-26T19:10:21.006Z,1.43
2019-05-26T19:12:50.183Z,1.40
2019-05-26T19:15:19.230Z,1.53
2019-05-26T19:17:48.431Z,61.67
2019-05-26T19:20:17.725Z,5.30
2019-05-26T19:22:46.783Z,2.40
2019-05-26T19:25:15.815Z,1.70
2019-05-26T19:27:44.933Z,1.60
2019-05-26T19:30:14.105Z,1.40
2019-05-26T19:32:43.283Z,1.70
2019-05-26T19:35:12.383Z,1.40
2019-05-26T19:37:41.536Z,1.43
2019-05-26T19:40:10.679Z,1.77
2019-05-26T19:42:39.855Z,1.40
2019-05-26T19:45:08.972Z,1.40
2019-05-26T19:47:38.040Z,1.60
2019-05-26T19:50:07.185Z,1.57
2019-05-26T19:52:36.313Z,1.80
2019-05-26T19:55:05.654Z,1.60
2019-05-26T19:57:34.740Z,1.80
2019-05-26T20:00:03.763Z,1.50
2019-05-26T20:02:32.842Z,1.67
2019-05-26T20:05:01.897Z,1.83
2019-05-26T20:07:30.909Z,1.90
2019-05-26T20:10:00.040Z,2.20
2019-05-26T20:12:29.139Z,1.77
2019-05-26T20:14:58.211Z,2.00
2019-05-26T20:17:27.234Z,1.43
2019-05-26T20:19:56.393Z,1.73
2019-05-26T20:22:25.381Z,1.77
2019-05-26T20:24:54.486Z,1.70
2019-05-26T20:27:23.549Z,1.80
2019-05-26T20:29:52.705Z,1.90
2019-05-26T20:32:21.905Z,2.00
2019-05-26T20:34:51.007Z,2.10
2019-05-26T20:37:20.106Z,2.00
2019-05-26T20:39:49.171Z,1.80
2019-05-26T20:42:18.242Z,1.70
2019-05-26T20:44:47.344Z,1.83
2019-05-26T20:47:16.395Z,1.90
2019-05-26T20:49:46.139Z,1.60
2019-05-26T20:52:15.181Z,1.97
2019-05-26T20:54:44.278Z,1.90
2019-05-26T20:57:13.312Z,1.80
2019-05-26T20:59:42.428Z,2.20
2019-05-26T21:02:11.656Z,2.17
2019-05-26T21:04:40.765Z,2.10
2019-05-26T21:07:09.744Z,2.20
2019-05-26T21:09:38.773Z,2.10
2019-05-26T21:12:07.821Z,2.00
2019-05-26T21:14:36.910Z,2.03
2019-05-26T21:17:05.976Z,2.10
2019-05-26T21:19:35.103Z,2.47
2019-05-26T21:22:04.125Z,2.20
2019-05-26T21:24:33.174Z,2.40
2019-05-26T21:27:02.278Z,1.90
2019-05-26T21:29:31.362Z,2.20
2019-05-26T21:32:00.361Z,2.27
2019-05-26T21:34:29.375Z,2.10
2019-05-26T21:36:58.447Z,2.73
2019-05-26T21:39:27.576Z,2.30
2019-05-26T21:41:56.621Z,2.20
2019-05-26T21:44:25.669Z,2.60
2019-05-26T21:46:54.921Z,2.27
2019-05-26T21:49:23.979Z,2.57
2019-05-26T21:51:53.125Z,2.40
2019-05-26T21:54:22.267Z,2.70
2019-05-26T21:56:51.433Z,2.50
2019-05-26T21:59:20.555Z,2.67
2019-05-26T22:01:49.696Z,2.53
2019-05-26T22:04:18.739Z,2.40
2019-05-26T22:06:48.830Z,2.67
2019-05-26T22:09:17.847Z,2.80
2019-05-26T22:11:46.985Z,2.90
2019-05-26T22:14:16.026Z,2.50
2019-05-26T22:16:45.117Z,2.60
2019-05-26T22:19:14.220Z,2.37
2019-05-26T22:21:43.340Z,2.30
2019-05-26T22:24:12.382Z,2.50
2019-05-26T22:26:41.466Z,2.20
2019-05-26T22:29:10.550Z,2.40
2019-05-26T22:31:40.092Z,2.90
2019-05-26T22:34:09.163Z,2.70
2019-05-26T22:36:38.228Z,2.40
2019-05-26T22:39:07.498Z,2.57
2019-05-26T22:41:36.544Z,2.70
2019-05-26T22:44:05.824Z,2.63
2019-05-26T22:46:34.954Z,2.60
2019-05-26T22:49:04.729Z,2.43
2019-05-26T22:51:33.790Z,2.97
2019-05-26T22:54:02.840Z,2.50
2019-05-26T22:56:31.952Z,2.43
2019-05-26T22:59:01.032Z,2.60
2019-05-26T23:01:30.142Z,2.23
2019-05-26T23:03:59.127Z,2.67
2019-05-26T23:06:28.199Z,2.50
2019-05-26T23:08:57.249Z,2.40
2019-05-26T23:11:26.313Z,2.83
2019-05-26T23:13:55.300Z,2.80
2019-05-26T23:16:24.359Z,3.03
2019-05-26T23:18:53.442Z,2.80
2019-05-26T23:21:22.540Z,2.60
2019-05-26T23:23:51.717Z,2.70
2019-05-26T23:26:20.698Z,2.93
2019-05-26T23:28:49.728Z,3.10
2019-05-26T23:31:18.811Z,2.80
2019-05-26T23:33:47.841Z,3.00
2019-05-26T23:36:16.904Z,2.90
2019-05-26T23:38:46.033Z,2.80
2019-05-26T23:41:15.076Z,2.50
2019-05-26T23:43:44.154Z,2.63
2019-05-26T23:46:13.199Z,2.77
2019-05-26T23:48:42.256Z,3.13
2019-05-26T23:51:11.337Z,2.23
2019-05-26T23:53:40.364Z,2.87
2019-05-26T23:56:09.368Z,3.37
2019-05-26T23:58:38.374Z,2.87
